createdAt,value
2023-01-01T00:01:40.541Z,6.70
2023-01-01T00:04:12.558Z,7.17
2023-01-01T00:06:41.818Z,7.43
2023-01-01T00:09:27.016Z,8.83
2023-01-01T00:11:54.764Z,10.40
2023-01-01T00:14:22.534Z,7.33
2023-01-01T00:16:50.428Z,9.90
2023-01-01T00:19:18.380Z,7.00
2023-01-01T00:21:47.459Z,8.17
2023-01-01T00:24:15.655Z,7.83
2023-01-01T00:26:43.359Z,5.53
2023-01-01T00:29:11.492Z,9.10
2023-01-01T00:31:39.252Z,5.17
2023-01-01T00:34:07.069Z,5.03
2023-01-01T00:36:34.720Z,7.37
2023-01-01T00:39:04.628Z,6.17
2023-01-01T00:41:32.246Z,7.20
2023-01-01T00:44:00.205Z,4.40
2023-01-01T00:46:27.964Z,4.33
2023-01-01T00:48:55.604Z,4.80
2023-01-01T00:51:23.226Z,4.60
2023-01-01T00:53:51.112Z,4.80
2023-01-01T00:56:20.047Z,7.67
2023-01-01T00:59:01.153Z,7.73
2023-01-01T01:01:29.792Z,5.80
2023-01-01T01:03:57.484Z,6.40
2023-01-01T01:06:25.243Z,5.33
2023-01-01T01:08:52.929Z,8.87
2023-01-01T01:11:23.716Z,6.40
2023-01-01T01:13:53.324Z,6.47
2023-01-01T01:16:23.687Z,8.17
2023-01-01T01:18:52.562Z,6.27
2023-01-01T01:21:22.662Z,8.47
2023-01-01T01:23:50.620Z,7.33
2023-01-01T01:26:19.862Z,8.17
2023-01-01T01:28:50.199Z,7.00
2023-01-01T01:31:18.277Z,10.53
2023-01-01T01:33:46.993Z,7.33
2023-01-01T01:36:15.795Z,6.23
2023-01-01T01:38:43.770Z,6.53
2023-01-01T01:41:26.126Z,5.50
2023-01-01T01:43:58.370Z,5.83
2023-01-01T01:46:30.565Z,7.20
2023-01-01T01:49:02.140Z,4.57
2023-01-01T01:51:34.030Z,6.90
2023-01-01T01:54:04.331Z,3.83
2023-01-01T01:56:37.222Z,5.53
2023-01-01T01:59:06.834Z,3.70
2023-01-01T02:01:34.547Z,5.53
2023-01-01T02:04:03.086Z,3.47
2023-01-01T02:06:32.663Z,6.67
2023-01-01T02:09:03.302Z,4.07
2023-01-01T02:11:31.352Z,4.57
2023-01-01T02:14:00.341Z,4.10
2023-01-01T02:16:35.026Z,6.80
2023-01-01T02:19:09.009Z,3.07
2023-01-01T02:21:40.731Z,4.10
2023-01-01T02:24:24.982Z,5.27
2023-01-01T02:26:56.764Z,4.43
2023-01-01T02:29:31.724Z,4.50
2023-01-01T02:32:02.993Z,4.17
2023-01-01T02:34:34.961Z,4.83
2023-01-01T02:37:04.459Z,3.13
2023-01-01T02:39:35.762Z,4.33
2023-01-01T02:42:04.525Z,2.80
2023-01-01T02:44:36.464Z,6.20
2023-01-01T02:47:08.807Z,3.23
2023-01-01T02:49:39.516Z,3.17
2023-01-01T02:52:11.045Z,2.97
2023-01-01T02:54:44.852Z,3.73
2023-01-01T02:57:16.986Z,4.53
2023-01-01T03:00:13.731Z,3.13
2023-01-01T03:02:51.554Z,4.80
2023-01-01T03:05:24.553Z,4.10
2023-01-01T03:08:01.967Z,4.23
2023-01-01T03:10:36.060Z,3.70
2023-01-01T03:13:09.093Z,3.23
2023-01-01T03:15:42.491Z,4.80
2023-01-01T03:18:15.157Z,4.50
2023-01-01T03:20:46.895Z,3.10
2023-01-01T03:23:20.110Z,4.93
2023-01-01T03:25:51.125Z,5.23
2023-01-01T03:28:22.595Z,5.50
2023-01-01T03:30:53.533Z,5.17
2023-01-01T03:33:25.190Z,5.17
2023-01-01T03:35:55.613Z,5.63
2023-01-01T03:38:26.929Z,4.13
2023-01-01T03:40:58.908Z,3.37
2023-01-01T03:43:35.207Z,4.80
2023-01-01T03:46:05.351Z,4.07
2023-01-01T03:49:00.222Z,3.73
2023-01-01T03:51:38.923Z,3.70
2023-01-01T03:54:10.008Z,2.93
2023-01-01T03:56:40.888Z,4.47
2023-01-01T03:59:14.075Z,3.13
2023-01-01T04:01:46.075Z,6.20
2023-01-01T04:04:14.227Z,3.43
2023-01-01T04:06:41.849Z,5.10
2023-01-01T04:09:13.164Z,3.67
2023-01-01T04:12:00.730Z,2.47
2023-01-01T04:14:29.521Z,4.00
2023-01-01T04:16:59.000Z,6.13
2023-01-01T04:19:27.067Z,5.27
2023-01-01T04:21:54.650Z,4.83
2023-01-01T04:24:23.371Z,5.90
2023-01-01T04:26:51.275Z,2.83
2023-01-01T04:29:19.333Z,4.93
2023-01-01T04:31:47.692Z,3.50
2023-01-01T04:34:17.099Z,3.40
2023-01-01T04:36:44.761Z,4.40
2023-01-01T04:39:12.540Z,3.30
2023-01-01T04:41:40.180Z,4.20
2023-01-01T04:44:07.910Z,3.93
2023-01-01T04:46:35.618Z,3.43
2023-01-01T04:49:03.185Z,7.50
2023-01-01T04:51:32.098Z,5.20
2023-01-01T04:54:00.149Z,3.33
2023-01-01T04:56:27.774Z,6.83
2023-01-01T04:58:57.111Z,5.73
2023-01-01T05:01:26.712Z,4.13
2023-01-01T05:03:54.749Z,2.80
2023-01-01T05:06:22.958Z,6.33
2023-01-01T05:08:54.503Z,4.83
2023-01-01T05:11:23.579Z,3.47
2023-01-01T05:13:53.489Z,2.13
2023-01-01T05:16:24.411Z,3.40
2023-01-01T05:18:52.449Z,4.63
2023-01-01T05:21:21.785Z,5.43
2023-01-01T05:23:49.713Z,2.97
2023-01-01T05:26:20.758Z,5.60
2023-01-01T05:28:49.087Z,4.07
2023-01-01T05:31:18.729Z,3.97
2023-01-01T05:33:46.476Z,3.83
2023-01-01T05:36:17.100Z,5.57
2023-01-01T05:38:45.017Z,5.67
2023-01-01T05:41:15.564Z,4.40
2023-01-01T05:43:44.761Z,4.57
2023-01-01T05:46:13.944Z,6.47
2023-01-01T05:48:41.625Z,4.43
2023-01-01T05:51:10.793Z,3.43
2023-01-01T05:53:38.624Z,2.80
2023-01-01T05:56:07.077Z,5.83
2023-01-01T05:58:35.998Z,4.63
2023-01-01T06:01:09.852Z,2.67
2023-01-01T06:03:37.889Z,2.63
2023-01-01T06:06:07.139Z,4.43
2023-01-01T06:08:35.161Z,4.43
2023-01-01T06:11:04.055Z,4.93
2023-01-01T06:13:32.038Z,3.87
2023-01-01T06:16:01.237Z,5.40
2023-01-01T06:18:32.246Z,7.03
2023-01-01T06:21:05.439Z,5.83
2023-01-01T06:23:33.264Z,3.47
2023-01-01T06:26:06.242Z,4.03
2023-01-01T06:28:33.959Z,4.50
2023-01-01T06:31:02.156Z,4.63
2023-01-01T06:33:31.854Z,5.50
2023-01-01T06:36:00.042Z,4.27
2023-01-01T06:38:27.630Z,3.47
2023-01-01T06:40:59.462Z,5.17
2023-01-01T06:43:27.554Z,3.43
2023-01-01T06:46:02.845Z,3.53
2023-01-01T06:48:33.157Z,3.40
2023-01-01T06:51:06.718Z,4.70
2023-01-01T06:53:34.367Z,5.53
2023-01-01T06:56:01.984Z,5.50
2023-01-01T06:58:29.672Z,9.57
2023-01-01T07:01:08.375Z,3.17
2023-01-01T07:03:38.563Z,4.03
2023-01-01T07:06:07.168Z,6.27
2023-01-01T07:08:35.070Z,5.50
2023-01-01T07:11:03.143Z,4.30
2023-01-01T07:13:31.681Z,7.67
2023-01-01T07:15:59.530Z,5.17
2023-01-01T07:18:27.227Z,4.83
2023-01-01T07:20:57.624Z,5.33
2023-01-01T07:23:25.935Z,4.60
2023-01-01T07:25:54.441Z,4.87
2023-01-01T07:28:22.870Z,4.53
2023-01-01T07:30:50.806Z,5.57
2023-01-01T07:33:19.895Z,6.63
2023-01-01T07:35:47.504Z,5.13
2023-01-01T07:38:17.036Z,4.23
2023-01-01T07:40:44.664Z,5.23
2023-01-01T07:43:14.139Z,3.33
2023-01-01T07:45:41.951Z,4.23
2023-01-01T07:48:12.143Z,4.53
2023-01-01T07:50:39.752Z,4.63
2023-01-01T07:53:07.497Z,3.67
2023-01-01T07:55:36.444Z,6.33
2023-01-01T07:58:04.211Z,4.50
2023-01-01T08:00:31.875Z,6.57
2023-01-01T08:02:59.666Z,3.30
2023-01-01T08:05:27.495Z,3.57
2023-01-01T08:07:56.048Z,3.30
2023-01-01T08:10:23.822Z,2.53
2023-01-01T08:12:52.786Z,5.30
2023-01-01T08:15:20.444Z,4.73
2023-01-01T08:17:48.052Z,5.83
2023-01-01T08:20:15.888Z,4.43
2023-01-01T08:22:43.575Z,5.73
2023-01-01T08:25:11.122Z,5.13
2023-01-01T08:27:39.115Z,4.17
2023-01-01T08:30:09.851Z,6.70
2023-01-01T08:32:37.459Z,3.13
2023-01-01T08:35:05.759Z,4.17
2023-01-01T08:37:33.525Z,4.43
2023-01-01T08:40:01.229Z,4.70
2023-01-01T08:42:28.889Z,4.67
2023-01-01T08:44:56.557Z,8.03
2023-01-01T08:47:27.300Z,3.90
2023-01-01T08:49:55.104Z,6.17
2023-01-01T08:52:23.165Z,5.73
2023-01-01T08:54:50.763Z,5.43
2023-01-01T08:57:18.432Z,4.77
2023-01-01T08:59:46.063Z,6.87
2023-01-01T09:02:13.987Z,5.13
2023-01-01T09:04:43.286Z,5.03
2023-01-01T09:07:10.944Z,6.53
2023-01-01T09:09:38.544Z,4.10
2023-01-01T09:12:09.221Z,5.47
2023-01-01T09:14:36.919Z,5.90
2023-01-01T09:17:04.577Z,4.00
2023-01-01T09:19:32.299Z,4.23
2023-01-01T09:22:01.252Z,8.07
2023-01-01T09:24:28.855Z,7.90
2023-01-01T09:26:56.444Z,9.87
2023-01-01T09:29:24.065Z,5.03
2023-01-01T09:31:51.773Z,6.93
2023-01-01T09:34:19.419Z,7.57
2023-01-01T09:36:47.630Z,7.97
2023-01-01T09:39:17.337Z,5.87
2023-01-01T09:41:55.517Z,7.10
2023-01-01T09:44:36.900Z,7.43
2023-01-01T09:47:05.639Z,4.87
2023-01-01T09:49:35.902Z,4.03
2023-01-01T09:52:05.599Z,7.53
2023-01-01T09:54:35.592Z,4.73
2023-01-01T09:57:04.936Z,3.20
2023-01-01T09:59:32.892Z,5.03
2023-01-01T10:02:05.805Z,5.70
2023-01-01T10:04:45.500Z,5.83
2023-01-01T10:07:19.454Z,6.23
2023-01-01T10:09:53.404Z,9.13
2023-01-01T10:12:24.201Z,4.57
2023-01-01T10:15:00.570Z,4.77
2023-01-01T10:17:34.061Z,3.57
2023-01-01T10:20:04.696Z,6.27
2023-01-01T10:22:36.182Z,5.37
2023-01-01T10:25:15.885Z,7.70
2023-01-01T10:27:47.069Z,4.20
2023-01-01T10:30:17.087Z,2.80
2023-01-01T10:32:48.285Z,3.47
2023-01-01T10:35:17.609Z,7.50
2023-01-01T10:37:46.044Z,8.73
2023-01-01T10:40:20.568Z,7.00
2023-01-01T10:42:50.200Z,7.10
2023-01-01T10:45:20.719Z,8.20
2023-01-01T10:48:14.347Z,7.83
2023-01-01T10:50:43.729Z,5.63
2023-01-01T10:53:22.367Z,8.67
2023-01-01T10:55:52.126Z,9.67
2023-01-01T10:58:35.753Z,8.57
2023-01-01T11:01:04.988Z,8.87
2023-01-01T11:03:33.525Z,8.17
2023-01-01T11:06:14.914Z,5.93
2023-01-01T11:08:48.419Z,5.57
2023-01-01T11:11:23.563Z,9.03
2023-01-01T11:13:52.607Z,7.53
2023-01-01T11:16:20.352Z,5.70
2023-01-01T11:18:48.512Z,5.67
2023-01-01T11:21:22.029Z,7.47
2023-01-01T11:24:18.862Z,3.90
2023-01-01T11:26:54.208Z,9.17
2023-01-01T11:29:26.986Z,8.40
2023-01-01T11:31:54.960Z,4.60
2023-01-01T11:34:29.004Z,8.73
2023-01-01T11:37:09.344Z,7.30
2023-01-01T11:39:38.005Z,7.97
2023-01-01T11:42:08.485Z,7.67
2023-01-01T11:44:39.205Z,3.80
2023-01-01T11:47:08.039Z,5.30
2023-01-01T11:49:35.976Z,12.83
2023-01-01T11:52:33.838Z,6.57
2023-01-01T11:55:04.834Z,7.30
2023-01-01T12:00:26.255Z,6.70
2023-01-01T12:02:58.721Z,5.43
2023-01-01T12:05:29.273Z,7.90
2023-01-01T12:07:59.358Z,7.67
2023-01-01T12:10:28.767Z,7.07
2023-01-01T12:13:02.314Z,4.00
2023-01-01T12:15:36.864Z,4.43
2023-01-01T12:18:07.633Z,8.57
2023-01-01T12:20:37.949Z,7.67
2023-01-01T12:23:05.734Z,8.17
2023-01-01T12:25:37.055Z,5.00
2023-01-01T12:28:16.491Z,8.67
2023-01-01T12:30:50.683Z,5.83
2023-01-01T12:33:30.641Z,5.40
2023-01-01T12:36:07.756Z,5.90
2023-01-01T12:38:54.341Z,9.23
2023-01-01T12:41:29.142Z,5.83
2023-01-01T12:44:02.477Z,7.17
2023-01-01T12:46:44.027Z,6.40
2023-01-01T12:49:25.304Z,6.43
2023-01-01T12:52:03.829Z,10.17
2023-01-01T12:54:58.963Z,4.43
2023-01-01T12:57:31.143Z,6.33
2023-01-01T13:00:02.473Z,8.00
2023-01-01T13:02:32.055Z,7.10
2023-01-01T13:05:04.442Z,7.27
2023-01-01T13:07:33.880Z,5.67
2023-01-01T13:10:06.583Z,6.63
2023-01-01T13:12:37.838Z,6.40
2023-01-01T13:15:35.253Z,5.53
2023-01-01T13:18:06.293Z,6.70
2023-01-01T13:20:35.295Z,5.67
2023-01-01T13:23:02.935Z,9.30
2023-01-01T13:25:30.595Z,6.73
2023-01-01T13:28:06.266Z,5.37
2023-01-01T13:30:49.877Z,9.50
2023-01-01T13:33:26.582Z,8.60
2023-01-01T13:36:28.088Z,8.60
2023-01-01T13:38:56.675Z,4.07
2023-01-01T13:41:31.767Z,6.37
2023-01-01T13:44:13.776Z,6.27
2023-01-01T13:46:52.117Z,7.27
2023-01-01T13:49:27.908Z,7.97
2023-01-01T13:52:05.970Z,8.17
2023-01-01T13:54:57.986Z,4.27
2023-01-01T13:58:01.297Z,4.77
2023-01-01T14:00:34.050Z,6.80
2023-01-01T14:03:03.148Z,5.90
2023-01-01T14:05:34.004Z,7.70
2023-01-01T14:08:01.629Z,7.33
2023-01-01T14:10:31.392Z,8.53
2023-01-01T14:13:16.063Z,5.90
2023-01-01T14:15:53.187Z,9.90
2023-01-01T14:18:22.096Z,7.87
2023-01-01T14:20:52.419Z,4.13
2023-01-01T14:23:23.621Z,6.77
2023-01-01T14:25:51.460Z,7.70
2023-01-01T14:28:21.209Z,7.47
2023-01-01T14:30:48.979Z,5.63
2023-01-01T14:33:24.534Z,5.70
2023-01-01T14:35:54.535Z,9.77
2023-01-01T14:38:27.143Z,6.50
2023-01-01T14:41:03.543Z,4.43
2023-01-01T14:43:31.350Z,8.73
2023-01-01T14:45:58.990Z,6.40
2023-01-01T14:48:26.648Z,6.10
2023-01-01T14:50:55.760Z,8.07
2023-01-01T14:53:29.637Z,8.40
2023-01-01T14:55:57.419Z,6.93
2023-01-01T14:58:26.683Z,9.17
2023-01-01T15:00:54.551Z,7.37
2023-01-01T15:03:23.617Z,7.53
2023-01-01T15:06:00.591Z,6.53
2023-01-01T15:08:28.220Z,6.67
2023-01-01T15:10:56.460Z,7.90
2023-01-01T15:13:25.554Z,6.77
2023-01-01T15:15:54.555Z,5.87
2023-01-01T15:18:37.137Z,7.43
2023-01-01T15:21:10.911Z,12.00
2023-01-01T15:23:38.627Z,7.33
2023-01-01T15:26:09.874Z,7.27
2023-01-01T15:28:39.238Z,8.73
2023-01-01T15:31:07.076Z,15.57
2023-01-01T15:33:34.783Z,9.90
2023-01-01T15:36:03.877Z,9.13
2023-01-01T15:38:35.284Z,9.23
2023-01-01T15:41:26.667Z,8.13
2023-01-01T15:44:08.034Z,12.13
2023-01-01T15:46:35.662Z,6.67
2023-01-01T15:49:03.622Z,10.17
2023-01-01T15:51:31.287Z,9.60
2023-01-01T15:54:01.579Z,6.33
2023-01-01T15:56:31.371Z,8.13
2023-01-01T15:59:08.411Z,8.57
2023-01-01T16:01:38.578Z,6.43
2023-01-01T16:04:10.108Z,5.50
2023-01-01T16:06:44.194Z,8.47
2023-01-01T16:09:14.217Z,9.47
2023-01-01T16:11:41.809Z,11.63
2023-01-01T16:14:09.677Z,7.33
2023-01-01T16:16:38.778Z,8.87
2023-01-01T16:19:06.668Z,7.50
2023-01-01T16:21:34.950Z,6.37
2023-01-01T16:24:02.541Z,9.93
2023-01-01T16:26:31.441Z,9.87
2023-01-01T16:28:59.029Z,12.80
2023-01-01T16:31:28.768Z,8.63
2023-01-01T16:33:57.722Z,11.47
2023-01-01T16:36:27.312Z,9.77
2023-01-01T16:38:54.999Z,14.93
2023-01-01T16:41:22.978Z,9.20
2023-01-01T16:43:52.015Z,8.67
2023-01-01T16:46:19.635Z,14.00
2023-01-01T16:48:47.247Z,12.30
2023-01-01T16:51:19.041Z,14.13
2023-01-01T16:53:46.793Z,11.17
2023-01-01T16:56:14.901Z,11.60
2023-01-01T16:58:54.060Z,9.97
2023-01-01T17:01:27.383Z,9.27
2023-01-01T17:03:55.223Z,13.73
2023-01-01T17:06:22.832Z,13.37
2023-01-01T17:08:50.400Z,9.63
2023-01-01T17:11:18.960Z,10.30
2023-01-01T17:13:48.192Z,10.53
2023-01-01T17:16:23.267Z,6.83
2023-01-01T17:21:43.700Z,8.20
2023-01-01T17:24:11.324Z,6.23
2023-01-01T17:26:38.980Z,7.10
2023-01-01T17:29:07.464Z,8.70
2023-01-01T17:31:35.233Z,8.10
2023-01-01T17:34:04.330Z,7.47
2023-01-01T17:36:31.946Z,9.57
2023-01-01T17:38:59.552Z,6.97
2023-01-01T17:41:27.225Z,9.90
2023-01-01T17:43:54.790Z,6.67
2023-01-01T17:46:24.012Z,8.77
2023-01-01T17:48:52.545Z,6.87
2023-01-01T17:51:21.925Z,7.63
2023-01-01T17:53:50.046Z,8.70
2023-01-01T17:56:19.407Z,7.77
2023-01-01T17:58:47.803Z,9.33
2023-01-01T18:01:28.189Z,4.80
2023-01-01T18:03:57.300Z,6.23
2023-01-01T18:06:26.681Z,6.37
2023-01-01T18:08:57.889Z,7.50
2023-01-01T18:11:26.046Z,6.00
2023-01-01T18:13:53.709Z,9.27
2023-01-01T18:16:21.413Z,6.17
2023-01-01T18:18:49.078Z,3.93
2023-01-01T18:21:21.833Z,8.20
2023-01-01T18:23:52.478Z,7.93
2023-01-01T18:26:20.753Z,7.17
2023-01-01T18:28:52.364Z,7.70
2023-01-01T18:31:20.292Z,9.87
2023-01-01T18:33:48.341Z,9.17
2023-01-01T18:36:18.430Z,7.00
2023-01-01T18:38:48.693Z,13.07
2023-01-01T18:41:29.291Z,11.60
2023-01-01T18:43:58.350Z,13.17
2023-01-01T18:46:25.961Z,10.57
2023-01-01T18:48:58.866Z,5.30
2023-01-01T18:51:27.104Z,5.93
2023-01-01T18:53:56.950Z,9.83
2023-01-01T18:56:26.353Z,7.10
2023-01-01T18:58:56.042Z,7.07
2023-01-01T19:01:25.201Z,10.03
2023-01-01T19:03:56.010Z,7.03
2023-01-01T19:06:27.635Z,10.23
2023-01-01T19:09:03.814Z,7.73
2023-01-01T19:11:33.061Z,7.77
2023-01-01T19:14:05.461Z,6.80
2023-01-01T19:16:33.188Z,7.13
2023-01-01T19:19:10.220Z,7.03
2023-01-01T19:21:37.853Z,6.40
2023-01-01T19:24:13.628Z,10.03
2023-01-01T19:26:42.712Z,7.93
2023-01-01T19:29:14.877Z,13.03
2023-01-01T19:31:42.610Z,9.10
2023-01-01T19:34:11.030Z,13.33
2023-01-01T19:36:38.671Z,16.70
2023-01-01T19:39:06.368Z,16.27
2023-01-01T19:41:34.370Z,14.30
2023-01-01T19:44:07.238Z,11.57
2023-01-01T19:46:37.537Z,11.90
2023-01-01T19:49:05.333Z,9.70
2023-01-01T19:51:32.915Z,11.87
2023-01-01T19:54:00.617Z,11.63
2023-01-01T19:56:28.242Z,14.00
2023-01-01T19:58:55.904Z,10.00
2023-01-01T20:01:24.936Z,15.43
2023-01-01T20:03:55.347Z,13.30
2023-01-01T20:06:24.247Z,11.80
2023-01-01T20:08:52.071Z,9.70
2023-01-01T20:11:20.632Z,10.90
2023-01-01T20:13:48.487Z,10.27
2023-01-01T20:16:16.126Z,7.43
2023-01-01T20:18:45.652Z,9.37
2023-01-01T20:21:31.050Z,7.37
2023-01-01T20:23:58.897Z,8.90
2023-01-01T20:26:26.550Z,7.93
2023-01-01T20:29:11.960Z,7.70
2023-01-01T20:31:39.594Z,11.50
2023-01-01T20:34:08.606Z,10.53
2023-01-01T20:36:54.077Z,17.90
2023-01-01T20:39:22.479Z,16.87
2023-01-01T20:41:50.148Z,17.33
2023-01-01T20:44:17.945Z,22.00
2023-01-01T20:46:47.896Z,12.07
2023-01-01T20:49:17.933Z,8.43
2023-01-01T20:51:45.713Z,7.40
2023-01-01T20:54:13.351Z,9.13
2023-01-01T20:56:40.926Z,11.50
2023-01-01T20:59:33.622Z,10.70
2023-01-01T21:01:56.511Z,10.13
2023-01-01T21:04:25.507Z,15.37
2023-01-01T21:06:53.228Z,26.37
2023-01-01T21:09:22.785Z,19.07
2023-01-01T21:11:50.405Z,9.20
2023-01-01T21:14:18.592Z,9.73
2023-01-01T21:16:46.404Z,5.13
2023-01-01T21:19:14.110Z,5.80
2023-01-01T21:21:46.049Z,8.20
2023-01-01T21:24:22.560Z,5.20
2023-01-01T21:26:51.496Z,6.77
2023-01-01T21:29:21.152Z,6.13
2023-01-01T21:31:52.158Z,7.33
2023-01-01T21:34:31.609Z,7.80
2023-01-01T21:37:03.217Z,11.33
2023-01-01T21:39:32.072Z,10.93
2023-01-01T21:42:15.598Z,6.47
2023-01-01T21:44:43.111Z,8.33
2023-01-01T21:47:18.587Z,7.77
2023-01-01T21:49:46.101Z,6.63
2023-01-01T21:52:19.916Z,7.10
2023-01-01T21:54:48.913Z,7.00
2023-01-01T21:57:19.805Z,7.53
2023-01-01T21:59:48.079Z,9.60
2023-01-01T22:02:33.362Z,6.80
2023-01-01T22:05:02.966Z,9.10
2023-01-01T22:10:24.951Z,9.77
2023-01-01T22:12:57.040Z,7.00
2023-01-01T22:15:29.811Z,4.37
2023-01-01T22:18:22.835Z,7.57
2023-01-01T22:20:50.584Z,10.10
2023-01-01T22:23:27.467Z,6.30
2023-01-01T22:25:55.046Z,6.13
2023-01-01T22:28:24.504Z,9.13
2023-01-01T22:30:54.856Z,9.53
2023-01-01T22:33:27.738Z,8.17
2023-01-01T22:35:56.350Z,6.07
2023-01-01T22:38:31.214Z,11.83
2023-01-01T22:40:58.902Z,9.17
2023-01-01T22:43:28.830Z,5.47
2023-01-01T22:45:56.490Z,9.07
2023-01-01T22:48:27.130Z,6.07
2023-01-01T22:50:55.071Z,5.50
2023-01-01T22:53:22.622Z,7.33
2023-01-01T22:55:51.550Z,6.17
2023-01-01T22:58:19.216Z,8.87
2023-01-01T23:00:46.807Z,10.73
2023-01-01T23:03:14.452Z,5.70
2023-01-01T23:05:42.157Z,7.30
2023-01-01T23:08:09.717Z,7.93
2023-01-01T23:10:37.563Z,8.93
2023-01-01T23:13:20.440Z,6.03
2023-01-01T23:16:03.175Z,8.83
2023-01-01T23:18:32.390Z,4.07
2023-01-01T23:21:01.267Z,8.67
2023-01-01T23:23:30.179Z,7.80
2023-01-01T23:25:58.639Z,5.93
2023-01-01T23:28:28.496Z,6.70
2023-01-01T23:31:01.547Z,9.30
2023-01-01T23:33:30.080Z,3.83
2023-01-01T23:35:58.084Z,7.23
2023-01-01T23:38:26.316Z,4.53
2023-01-01T23:40:54.017Z,7.07
2023-01-01T23:43:21.894Z,7.50
2023-01-01T23:45:51.664Z,4.50
2023-01-01T23:48:19.998Z,8.20
2023-01-01T23:50:48.320Z,8.27
2023-01-01T23:53:16.290Z,5.13
2023-01-01T23:55:44.030Z,11.73
2023-01-01T23:58:11.786Z,5.90
